sensor_id;sensor_type;location;lat;lon;timestamp;temperature;humidity
56240;DHT22;42154;51.992;5.896;2024-01-10T00:01:34;-3.40;98.60
56240;DHT22;42154;51.992;5.896;2024-01-10T00:04:00;-3.40;98.90
56240;DHT22;42154;51.992;5.896;2024-01-10T00:06:26;-3.50;98.80
56240;DHT22;42154;51.992;5.896;2024-01-10T00:08:51;-3.50;98.90
56240;DHT22;42154;51.992;5.896;2024-01-10T00:11:17;-3.60;99.00
56240;DHT22;42154;51.992;5.896;2024-01-10T00:13:43;-3.60;99.10
56240;DHT22;42154;51.992;5.896;2024-01-10T00:16:12;-3.60;99.20
56240;DHT22;42154;51.992;5.896;2024-01-10T00:18:38;-3.60;99.30
56240;DHT22;42154;51.992;5.896;2024-01-10T00:21:06;-3.60;99.40
56240;DHT22;42154;51.992;5.896;2024-01-10T00:23:32;-3.60;99.50
56240;DHT22;42154;51.992;5.896;2024-01-10T00:25:57;-3.60;99.50
56240;DHT22;42154;51.992;5.896;2024-01-10T00:28:23;-3.70;99.60
56240;DHT22;42154;51.992;5.896;2024-01-10T00:30:50;-3.70;99.60
56240;DHT22;42154;51.992;5.896;2024-01-10T00:33:15;-3.70;99.70
56240;DHT22;42154;51.992;5.896;2024-01-10T00:35:41;-3.70;99.70
56240;DHT22;42154;51.992;5.896;2024-01-10T00:38:07;-3.70;99.90
56240;DHT22;42154;51.992;5.896;2024-01-10T00:40:33;-3.70;99.90
56240;DHT22;42154;51.992;5.896;2024-01-10T00:42:58;-3.70;99.90
56240;DHT22;42154;51.992;5.896;2024-01-10T00:45:24;-3.70;99.90
56240;DHT22;42154;51.992;5.896;2024-01-10T00:47:50;-3.70;99.90
56240;DHT22;42154;51.992;5.896;2024-01-10T00:50:16;-3.80;99.90
56240;DHT22;42154;51.992;5.896;2024-01-10T00:52:43;-3.80;99.90
56240;DHT22;42154;51.992;5.896;2024-01-10T00:55:09;-3.80;99.90
56240;DHT22;42154;51.992;5.896;2024-01-10T00:57:35;-3.80;99.90
56240;DHT22;42154;51.992;5.896;2024-01-10T01:00:00;-3.90;99.90
56240;DHT22;42154;51.992;5.896;2024-01-10T01:02:27;-3.90;99.90
56240;DHT22;42154;51.992;5.896;2024-01-10T01:04:53;-3.90;99.90
56240;DHT22;42154;51.992;5.896;2024-01-10T01:07:18;-3.90;99.90
56240;DHT22;42154;51.992;5.896;2024-01-10T01:09:44;-3.90;99.90
56240;DHT22;42154;51.992;5.896;2024-01-10T01:12:10;-3.90;99.90
56240;DHT22;42154;51.992;5.896;2024-01-10T01:14:35;-3.90;99.90
56240;DHT22;42154;51.992;5.896;2024-01-10T01:17:01;-3.90;99.90
56240;DHT22;42154;51.992;5.896;2024-01-10T01:19:27;-3.90;99.90
56240;DHT22;42154;51.992;5.896;2024-01-10T01:21:53;-3.80;99.90
56240;DHT22;42154;51.992;5.896;2024-01-10T01:24:19;-3.90;99.90
56240;DHT22;42154;51.992;5.896;2024-01-10T01:26:44;-4.00;99.90
56240;DHT22;42154;51.992;5.896;2024-01-10T01:29:10;-4.00;99.90
56240;DHT22;42154;51.992;5.896;2024-01-10T01:31:36;-4.00;99.90
56240;DHT22;42154;51.992;5.896;2024-01-10T01:34:02;-4.00;99.90
56240;DHT22;42154;51.992;5.896;2024-01-10T01:36:28;-4.00;99.90
56240;DHT22;42154;51.992;5.896;2024-01-10T01:38:54;-4.00;99.90
56240;DHT22;42154;51.992;5.896;2024-01-10T01:41:20;-4.00;99.90
56240;DHT22;42154;51.992;5.896;2024-01-10T01:43:45;-4.00;99.90
56240;DHT22;42154;51.992;5.896;2024-01-10T01:46:11;-4.00;99.90
56240;DHT22;42154;51.992;5.896;2024-01-10T01:48:37;-4.00;99.90
56240;DHT22;42154;51.992;5.896;2024-01-10T01:51:07;-4.00;99.90
56240;DHT22;42154;51.992;5.896;2024-01-10T01:53:36;-4.00;99.90
56240;DHT22;42154;51.992;5.896;2024-01-10T01:56:12;-4.00;99.90
56240;DHT22;42154;51.992;5.896;2024-01-10T01:58:39;-4.10;99.90
56240;DHT22;42154;51.992;5.896;2024-01-10T02:01:05;-4.10;99.90
56240;DHT22;42154;51.992;5.896;2024-01-10T02:03:32;-4.10;99.90
56240;DHT22;42154;51.992;5.896;2024-01-10T02:06:01;-4.10;99.90
56240;DHT22;42154;51.992;5.896;2024-01-10T02:08:33;-4.10;99.90
56240;DHT22;42154;51.992;5.896;2024-01-10T02:11:01;-4.10;99.90
56240;DHT22;42154;51.992;5.896;2024-01-10T02:13:28;-4.10;99.90
56240;DHT22;42154;51.992;5.896;2024-01-10T02:15:54;-4.10;99.90
56240;DHT22;42154;51.992;5.896;2024-01-10T02:18:20;-4.10;99.90
56240;DHT22;42154;51.992;5.896;2024-01-10T02:20:46;-4.10;99.90
56240;DHT22;42154;51.992;5.896;2024-01-10T02:23:12;-4.10;99.90
56240;DHT22;42154;51.992;5.896;2024-01-10T02:25:41;-4.00;99.90
56240;DHT22;42154;51.992;5.896;2024-01-10T02:28:07;-4.10;99.90
56240;DHT22;42154;51.992;5.896;2024-01-10T02:30:35;-4.10;99.90
56240;DHT22;42154;51.992;5.896;2024-01-10T02:33:01;-4.10;99.90
56240;DHT22;42154;51.992;5.896;2024-01-10T02:35:26;-4.10;99.90
56240;DHT22;42154;51.992;5.896;2024-01-10T02:37:54;-4.20;99.90
56240;DHT22;42154;51.992;5.896;2024-01-10T02:40:20;-4.20;99.90
56240;DHT22;42154;51.992;5.896;2024-01-10T02:42:46;-4.20;99.90
56240;DHT22;42154;51.992;5.896;2024-01-10T02:45:12;-4.30;99.90
56240;DHT22;42154;51.992;5.896;2024-01-10T02:47:38;-4.30;99.90
56240;DHT22;42154;51.992;5.896;2024-01-10T02:50:05;-4.30;99.90
56240;DHT22;42154;51.992;5.896;2024-01-10T02:52:31;-4.30;99.90
56240;DHT22;42154;51.992;5.896;2024-01-10T02:54:57;-4.30;99.90
56240;DHT22;42154;51.992;5.896;2024-01-10T02:57:23;-4.30;99.90
56240;DHT22;42154;51.992;5.896;2024-01-10T02:59:49;-4.30;99.90
56240;DHT22;42154;51.992;5.896;2024-01-10T03:02:14;-4.40;99.90
56240;DHT22;42154;51.992;5.896;2024-01-10T03:04:41;-4.40;99.90
56240;DHT22;42154;51.992;5.896;2024-01-10T03:07:06;-4.40;99.90
56240;DHT22;42154;51.992;5.896;2024-01-10T03:09:32;-4.40;99.90
56240;DHT22;42154;51.992;5.896;2024-01-10T03:11:58;-4.40;99.90
56240;DHT22;42154;51.992;5.896;2024-01-10T03:14:24;-4.40;99.90
56240;DHT22;42154;51.992;5.896;2024-01-10T03:16:49;-4.40;99.90
56240;DHT22;42154;51.992;5.896;2024-01-10T03:19:15;-4.40;99.90
56240;DHT22;42154;51.992;5.896;2024-01-10T03:21:41;-4.50;99.90
56240;DHT22;42154;51.992;5.896;2024-01-10T03:24:07;-4.40;99.90
56240;DHT22;42154;51.992;5.896;2024-01-10T03:26:33;-4.40;99.90
56240;DHT22;42154;51.992;5.896;2024-01-10T03:28:58;-4.50;99.90
56240;DHT22;42154;51.992;5.896;2024-01-10T03:31:24;-4.50;99.90
56240;DHT22;42154;51.992;5.896;2024-01-10T03:33:50;-4.50;99.90
56240;DHT22;42154;51.992;5.896;2024-01-10T03:36:17;-4.50;99.90
56240;DHT22;42154;51.992;5.896;2024-01-10T03:38:43;-4.50;99.90
56240;DHT22;42154;51.992;5.896;2024-01-10T03:41:16;-4.50;99.90
56240;DHT22;42154;51.992;5.896;2024-01-10T03:43:42;-4.50;99.90
56240;DHT22;42154;51.992;5.896;2024-01-10T03:46:09;-4.50;99.90
56240;DHT22;42154;51.992;5.896;2024-01-10T03:48:35;-4.50;99.90
56240;DHT22;42154;51.992;5.896;2024-01-10T03:51:01;-4.60;99.90
56240;DHT22;42154;51.992;5.896;2024-01-10T03:53:27;-4.60;99.90
56240;DHT22;42154;51.992;5.896;2024-01-10T03:55:53;-4.60;99.90
56240;DHT22;42154;51.992;5.896;2024-01-10T03:58:20;-4.60;99.90
56240;DHT22;42154;51.992;5.896;2024-01-10T04:00:46;-4.60;99.90
56240;DHT22;42154;51.992;5.896;2024-01-10T04:03:11;-4.60;99.90
56240;DHT22;42154;51.992;5.896;2024-01-10T04:05:37;-4.60;99.90
56240;DHT22;42154;51.992;5.896;2024-01-10T04:08:03;-4.70;99.90
56240;DHT22;42154;51.992;5.896;2024-01-10T04:10:29;-4.70;99.90
56240;DHT22;42154;51.992;5.896;2024-01-10T04:12:55;-4.70;99.90
56240;DHT22;42154;51.992;5.896;2024-01-10T04:15:20;-4.70;99.90
56240;DHT22;42154;51.992;5.896;2024-01-10T04:17:46;-4.70;99.90
56240;DHT22;42154;51.992;5.896;2024-01-10T04:20:13;-4.70;99.90
56240;DHT22;42154;51.992;5.896;2024-01-10T04:22:38;-4.70;99.90
56240;DHT22;42154;51.992;5.896;2024-01-10T04:25:06;-4.70;99.90
56240;DHT22;42154;51.992;5.896;2024-01-10T04:27:32;-4.70;99.90
56240;DHT22;42154;51.992;5.896;2024-01-10T04:29:58;-4.70;99.90
56240;DHT22;42154;51.992;5.896;2024-01-10T04:32:24;-4.80;99.90
56240;DHT22;42154;51.992;5.896;2024-01-10T04:34:50;-4.80;99.90
56240;DHT22;42154;51.992;5.896;2024-01-10T04:37:16;-4.80;99.90
56240;DHT22;42154;51.992;5.896;2024-01-10T04:39:42;-4.80;99.90
56240;DHT22;42154;51.992;5.896;2024-01-10T04:42:11;-4.80;99.90
56240;DHT22;42154;51.992;5.896;2024-01-10T04:44:37;-4.80;99.90
56240;DHT22;42154;51.992;5.896;2024-01-10T04:47:03;-4.80;99.90
56240;DHT22;42154;51.992;5.896;2024-01-10T04:49:29;-4.80;99.90
56240;DHT22;42154;51.992;5.896;2024-01-10T04:51:55;-4.80;99.90
56240;DHT22;42154;51.992;5.896;2024-01-10T04:54:21;-4.80;99.90
56240;DHT22;42154;51.992;5.896;2024-01-10T04:56:46;-4.90;99.90
56240;DHT22;42154;51.992;5.896;2024-01-10T04:59:12;-4.90;99.90
56240;DHT22;42154;51.992;5.896;2024-01-10T05:01:38;-4.90;99.90
56240;DHT22;42154;51.992;5.896;2024-01-10T05:04:04;-4.90;99.90
56240;DHT22;42154;51.992;5.896;2024-01-10T05:06:30;-4.90;99.90
56240;DHT22;42154;51.992;5.896;2024-01-10T05:08:56;-4.90;99.90
56240;DHT22;42154;51.992;5.896;2024-01-10T05:11:24;-4.90;99.90
56240;DHT22;42154;51.992;5.896;2024-01-10T05:13:51;-4.90;99.90
56240;DHT22;42154;51.992;5.896;2024-01-10T05:16:18;-4.90;99.90
56240;DHT22;42154;51.992;5.896;2024-01-10T05:18:44;-4.90;99.90
56240;DHT22;42154;51.992;5.896;2024-01-10T05:21:09;-4.90;99.90
56240;DHT22;42154;51.992;5.896;2024-01-10T05:23:36;-4.90;99.90
56240;DHT22;42154;51.992;5.896;2024-01-10T05:26:04;-4.90;99.90
56240;DHT22;42154;51.992;5.896;2024-01-10T05:28:30;-4.90;99.90
56240;DHT22;42154;51.992;5.896;2024-01-10T05:30:55;-4.90;99.90
56240;DHT22;42154;51.992;5.896;2024-01-10T05:33:21;-4.90;99.90
56240;DHT22;42154;51.992;5.896;2024-01-10T05:35:47;-4.90;99.90
56240;DHT22;42154;51.992;5.896;2024-01-10T05:38:13;-4.80;99.90
56240;DHT22;42154;51.992;5.896;2024-01-10T05:40:39;-4.90;99.90
56240;DHT22;42154;51.992;5.896;2024-01-10T05:43:04;-4.90;99.90
56240;DHT22;42154;51.992;5.896;2024-01-10T05:45:30;-4.90;99.90
56240;DHT22;42154;51.992;5.896;2024-01-10T05:47:56;-4.90;99.90
56240;DHT22;42154;51.992;5.896;2024-01-10T05:50:22;-4.90;99.90
56240;DHT22;42154;51.992;5.896;2024-01-10T05:52:48;-4.90;99.90
56240;DHT22;42154;51.992;5.896;2024-01-10T05:55:14;-4.90;99.90
56240;DHT22;42154;51.992;5.896;2024-01-10T05:57:39;-4.90;99.90
56240;DHT22;42154;51.992;5.896;2024-01-10T06:00:06;-4.90;99.90
56240;DHT22;42154;51.992;5.896;2024-01-10T06:02:38;-4.80;99.90
56240;DHT22;42154;51.992;5.896;2024-01-10T06:05:11;-4.80;99.90
56240;DHT22;42154;51.992;5.896;2024-01-10T06:07:37;-4.80;99.90
56240;DHT22;42154;51.992;5.896;2024-01-10T06:10:03;-4.90;99.90
56240;DHT22;42154;51.992;5.896;2024-01-10T06:12:29;-4.80;99.90
56240;DHT22;42154;51.992;5.896;2024-01-10T06:14:55;-4.80;99.90
56240;DHT22;42154;51.992;5.896;2024-01-10T06:17:21;-4.80;99.90
56240;DHT22;42154;51.992;5.896;2024-01-10T06:19:47;-4.80;99.90
56240;DHT22;42154;51.992;5.896;2024-01-10T06:22:13;-4.80;99.90
56240;DHT22;42154;51.992;5.896;2024-01-10T06:24:39;-4.80;99.90
56240;DHT22;42154;51.992;5.896;2024-01-10T06:27:06;-4.80;99.90
56240;DHT22;42154;51.992;5.896;2024-01-10T06:29:32;-4.80;99.90
56240;DHT22;42154;51.992;5.896;2024-01-10T06:31:58;-4.90;99.90
56240;DHT22;42154;51.992;5.896;2024-01-10T06:34:27;-4.90;99.90
56240;DHT22;42154;51.992;5.896;2024-01-10T06:36:53;-4.90;99.90
56240;DHT22;42154;51.992;5.896;2024-01-10T06:39:18;-4.90;99.90
56240;DHT22;42154;51.992;5.896;2024-01-10T06:41:49;-4.90;99.90
56240;DHT22;42154;51.992;5.896;2024-01-10T06:44:15;-4.90;99.90
56240;DHT22;42154;51.992;5.896;2024-01-10T06:46:43;-4.90;99.90
56240;DHT22;42154;51.992;5.896;2024-01-10T06:49:09;-4.90;99.90
56240;DHT22;42154;51.992;5.896;2024-01-10T06:51:35;-4.90;99.90
56240;DHT22;42154;51.992;5.896;2024-01-10T06:54:01;-4.90;99.90
56240;DHT22;42154;51.992;5.896;2024-01-10T06:56:33;-4.90;99.90
56240;DHT22;42154;51.992;5.896;2024-01-10T06:59:00;-4.90;99.90
56240;DHT22;42154;51.992;5.896;2024-01-10T07:01:26;-4.90;99.90
56240;DHT22;42154;51.992;5.896;2024-01-10T07:03:52;-4.90;99.90
56240;DHT22;42154;51.992;5.896;2024-01-10T07:06:20;-5.00;99.90
56240;DHT22;42154;51.992;5.896;2024-01-10T07:08:49;-4.90;99.90
56240;DHT22;42154;51.992;5.896;2024-01-10T07:11:18;-4.90;99.90
56240;DHT22;42154;51.992;5.896;2024-01-10T07:13:47;-4.90;99.90
56240;DHT22;42154;51.992;5.896;2024-01-10T07:16:13;-5.00;99.90
56240;DHT22;42154;51.992;5.896;2024-01-10T07:18:42;-5.00;99.90
56240;DHT22;42154;51.992;5.896;2024-01-10T07:21:08;-5.00;99.90
56240;DHT22;42154;51.992;5.896;2024-01-10T07:23:34;-5.00;99.90
56240;DHT22;42154;51.992;5.896;2024-01-10T07:26:01;-5.00;99.90
56240;DHT22;42154;51.992;5.896;2024-01-10T07:28:26;-5.00;99.90
56240;DHT22;42154;51.992;5.896;2024-01-10T07:30:52;-5.00;99.90
56240;DHT22;42154;51.992;5.896;2024-01-10T07:33:18;-5.00;99.90
56240;DHT22;42154;51.992;5.896;2024-01-10T07:35:44;-5.00;99.90
56240;DHT22;42154;51.992;5.896;2024-01-10T07:38:09;-5.00;99.90
56240;DHT22;42154;51.992;5.896;2024-01-10T07:40:35;-5.00;99.90
56240;DHT22;42154;51.992;5.896;2024-01-10T07:43:02;-5.00;99.90
56240;DHT22;42154;51.992;5.896;2024-01-10T07:45:28;-5.00;99.90
56240;DHT22;42154;51.992;5.896;2024-01-10T07:47:54;-5.00;99.90
56240;DHT22;42154;51.992;5.896;2024-01-10T07:50:20;-5.00;99.90
56240;DHT22;42154;51.992;5.896;2024-01-10T07:52:46;-4.90;99.90
56240;DHT22;42154;51.992;5.896;2024-01-10T07:55:12;-4.90;99.90
56240;DHT22;42154;51.992;5.896;2024-01-10T07:57:38;-4.90;99.90
56240;DHT22;42154;51.992;5.896;2024-01-10T08:00:06;-4.90;99.90
56240;DHT22;42154;51.992;5.896;2024-01-10T08:02:36;-4.90;99.90
56240;DHT22;42154;51.992;5.896;2024-01-10T08:05:05;-4.80;99.90
56240;DHT22;42154;51.992;5.896;2024-01-10T08:07:38;-4.80;99.90
56240;DHT22;42154;51.992;5.896;2024-01-10T08:10:07;-4.70;99.90
56240;DHT22;42154;51.992;5.896;2024-01-10T08:12:35;-4.70;99.90
56240;DHT22;42154;51.992;5.896;2024-01-10T08:15:01;-4.70;99.90
56240;DHT22;42154;51.992;5.896;2024-01-10T08:17:27;-4.60;99.90
56240;DHT22;42154;51.992;5.896;2024-01-10T08:19:53;-4.50;99.90
56240;DHT22;42154;51.992;5.896;2024-01-10T08:22:19;-4.50;99.90
56240;DHT22;42154;51.992;5.896;2024-01-10T08:24:46;-4.50;99.90
56240;DHT22;42154;51.992;5.896;2024-01-10T08:27:12;-4.50;99.90
56240;DHT22;42154;51.992;5.896;2024-01-10T08:29:38;-4.40;99.90
56240;DHT22;42154;51.992;5.896;2024-01-10T08:32:04;-4.40;99.90
56240;DHT22;42154;51.992;5.896;2024-01-10T08:34:30;-4.40;99.90
56240;DHT22;42154;51.992;5.896;2024-01-10T08:36:56;-4.30;99.90
56240;DHT22;42154;51.992;5.896;2024-01-10T08:39:22;-4.30;99.90
56240;DHT22;42154;51.992;5.896;2024-01-10T08:41:50;-4.30;99.90
56240;DHT22;42154;51.992;5.896;2024-01-10T08:44:16;-4.20;99.90
56240;DHT22;42154;51.992;5.896;2024-01-10T08:46:41;-4.20;99.90
56240;DHT22;42154;51.992;5.896;2024-01-10T08:49:07;-4.20;99.90
56240;DHT22;42154;51.992;5.896;2024-01-10T08:51:33;-4.10;99.90
56240;DHT22;42154;51.992;5.896;2024-01-10T08:53:59;-4.10;99.90
56240;DHT22;42154;51.992;5.896;2024-01-10T08:56:25;-4.00;99.90
56240;DHT22;42154;51.992;5.896;2024-01-10T08:58:51;-4.00;99.90
56240;DHT22;42154;51.992;5.896;2024-01-10T09:01:18;-4.00;99.90
56240;DHT22;42154;51.992;5.896;2024-01-10T09:03:44;-3.90;99.90
56240;DHT22;42154;51.992;5.896;2024-01-10T09:06:10;-3.90;99.90
56240;DHT22;42154;51.992;5.896;2024-01-10T09:08:36;-3.80;99.90
56240;DHT22;42154;51.992;5.896;2024-01-10T09:11:02;-3.80;99.90
56240;DHT22;42154;51.992;5.896;2024-01-10T09:13:28;-3.80;99.90
56240;DHT22;42154;51.992;5.896;2024-01-10T09:15:55;-3.70;99.90
56240;DHT22;42154;51.992;5.896;2024-01-10T09:18:21;-3.70;99.90
56240;DHT22;42154;51.992;5.896;2024-01-10T09:20:47;-3.70;99.90
56240;DHT22;42154;51.992;5.896;2024-01-10T09:23:13;-3.60;99.90
56240;DHT22;42154;51.992;5.896;2024-01-10T09:25:39;-3.60;99.90
56240;DHT22;42154;51.992;5.896;2024-01-10T09:28:05;-3.60;99.90
56240;DHT22;42154;51.992;5.896;2024-01-10T09:30:31;-3.60;99.90
56240;DHT22;42154;51.992;5.896;2024-01-10T09:32:57;-3.50;99.90
56240;DHT22;42154;51.992;5.896;2024-01-10T09:35:24;-3.50;99.90
56240;DHT22;42154;51.992;5.896;2024-01-10T09:37:50;-3.40;99.90
56240;DHT22;42154;51.992;5.896;2024-01-10T09:40:16;-3.40;99.90
56240;DHT22;42154;51.992;5.896;2024-01-10T09:42:48;-3.30;99.90
56240;DHT22;42154;51.992;5.896;2024-01-10T09:45:14;-3.20;99.90
56240;DHT22;42154;51.992;5.896;2024-01-10T09:47:43;-3.20;99.90
56240;DHT22;42154;51.992;5.896;2024-01-10T09:50:11;-3.20;99.90
56240;DHT22;42154;51.992;5.896;2024-01-10T09:53:04;-3.10;99.90
56240;DHT22;42154;51.992;5.896;2024-01-10T09:55:34;-3.00;99.90
56240;DHT22;42154;51.992;5.896;2024-01-10T09:58:04;-2.90;99.90
56240;DHT22;42154;51.992;5.896;2024-01-10T10:00:30;-2.90;99.90
56240;DHT22;42154;51.992;5.896;2024-01-10T10:02:57;-2.80;99.90
56240;DHT22;42154;51.992;5.896;2024-01-10T10:05:24;-2.70;99.90
56240;DHT22;42154;51.992;5.896;2024-01-10T10:07:51;-2.70;99.90
56240;DHT22;42154;51.992;5.896;2024-01-10T10:10:19;-2.60;99.90
56240;DHT22;42154;51.992;5.896;2024-01-10T10:12:46;-2.50;99.90
56240;DHT22;42154;51.992;5.896;2024-01-10T10:15:16;-2.40;99.90
56240;DHT22;42154;51.992;5.896;2024-01-10T10:17:47;-2.40;99.90
56240;DHT22;42154;51.992;5.896;2024-01-10T10:20:25;-2.40;99.90
56240;DHT22;42154;51.992;5.896;2024-01-10T10:23:05;-2.30;99.90
56240;DHT22;42154;51.992;5.896;2024-01-10T10:25:33;-2.30;99.90
56240;DHT22;42154;51.992;5.896;2024-01-10T10:28:00;-2.30;99.80
56240;DHT22;42154;51.992;5.896;2024-01-10T10:30:26;-2.20;99.90
56240;DHT22;42154;51.992;5.896;2024-01-10T10:32:52;-2.20;99.60
56240;DHT22;42154;51.992;5.896;2024-01-10T10:35:19;-2.10;99.00
56240;DHT22;42154;51.992;5.896;2024-01-10T10:37:52;-2.00;99.30
56240;DHT22;42154;51.992;5.896;2024-01-10T10:40:19;-2.00;99.50
56240;DHT22;42154;51.992;5.896;2024-01-10T10:42:54;-1.90;99.50
56240;DHT22;42154;51.992;5.896;2024-01-10T10:45:20;-1.90;99.20
56240;DHT22;42154;51.992;5.896;2024-01-10T10:47:56;-1.80;99.30
56240;DHT22;42154;51.992;5.896;2024-01-10T10:50:23;-1.70;98.70
56240;DHT22;42154;51.992;5.896;2024-01-10T10:52:50;-1.70;98.80
56240;DHT22;42154;51.992;5.896;2024-01-10T10:55:18;-1.60;99.00
56240;DHT22;42154;51.992;5.896;2024-01-10T10:57:49;-1.60;98.70
56240;DHT22;42154;51.992;5.896;2024-01-10T11:00:20;-1.50;98.60
56240;DHT22;42154;51.992;5.896;2024-01-10T11:02:47;-1.50;98.20
56240;DHT22;42154;51.992;5.896;2024-01-10T11:05:13;-1.40;98.30
56240;DHT22;42154;51.992;5.896;2024-01-10T11:07:43;-1.40;98.40
56240;DHT22;42154;51.992;5.896;2024-01-10T11:10:16;-1.30;97.90
56240;DHT22;42154;51.992;5.896;2024-01-10T11:16:01;-1.30;97.70
56240;DHT22;42154;51.992;5.896;2024-01-10T11:21:24;-1.20;97.30
56240;DHT22;42154;51.992;5.896;2024-01-10T11:24:04;-1.10;97.00
56240;DHT22;42154;51.992;5.896;2024-01-10T11:26:32;-1.10;97.20
56240;DHT22;42154;51.992;5.896;2024-01-10T11:28:58;-1.10;97.30
56240;DHT22;42154;51.992;5.896;2024-01-10T11:31:30;-1.00;97.00
56240;DHT22;42154;51.992;5.896;2024-01-10T11:33:57;-1.00;97.00
56240;DHT22;42154;51.992;5.896;2024-01-10T11:36:23;-0.90;96.50
56240;DHT22;42154;51.992;5.896;2024-01-10T11:41:30;-0.80;96.40
56240;DHT22;42154;51.992;5.896;2024-01-10T11:46:49;-0.70;96.20
56240;DHT22;42154;51.992;5.896;2024-01-10T11:49:19;-0.60;95.20
56240;DHT22;42154;51.992;5.896;2024-01-10T11:51:46;-0.60;95.60
56240;DHT22;42154;51.992;5.896;2024-01-10T11:54:12;-0.50;95.80
56240;DHT22;42154;51.992;5.896;2024-01-10T11:56:43;-0.50;94.60
56240;DHT22;42154;51.992;5.896;2024-01-10T11:59:11;-0.50;95.00
56240;DHT22;42154;51.992;5.896;2024-01-10T12:01:38;-0.40;95.10
56240;DHT22;42154;51.992;5.896;2024-01-10T12:04:05;-0.40;95.00
56240;DHT22;42154;51.992;5.896;2024-01-10T12:06:33;-0.30;94.90
56240;DHT22;42154;51.992;5.896;2024-01-10T12:08:59;-0.30;94.90
56240;DHT22;42154;51.992;5.896;2024-01-10T12:11:29;-0.30;94.60
56240;DHT22;42154;51.992;5.896;2024-01-10T12:13:55;-0.30;94.90
56240;DHT22;42154;51.992;5.896;2024-01-10T12:16:23;-0.30;94.70
56240;DHT22;42154;51.992;5.896;2024-01-10T12:18:48;-0.20;94.80
56240;DHT22;42154;51.992;5.896;2024-01-10T12:21:14;-0.10;94.90
56240;DHT22;42154;51.992;5.896;2024-01-10T12:23:40;-0.10;94.10
56240;DHT22;42154;51.992;5.896;2024-01-10T12:26:09;0.00;94.00
56240;DHT22;42154;51.992;5.896;2024-01-10T12:28:35;-0.10;94.50
56240;DHT22;42154;51.992;5.896;2024-01-10T12:31:03;-0.10;94.60
56240;DHT22;42154;51.992;5.896;2024-01-10T12:33:29;0.00;94.60
56240;DHT22;42154;51.992;5.896;2024-01-10T12:36:10;0.00;94.30
56240;DHT22;42154;51.992;5.896;2024-01-10T12:38:38;0.00;94.30
56240;DHT22;42154;51.992;5.896;2024-01-10T12:41:05;0.10;94.10
56240;DHT22;42154;51.992;5.896;2024-01-10T12:43:31;0.10;94.00
56240;DHT22;42154;51.992;5.896;2024-01-10T12:46:11;0.10;94.10
56240;DHT22;42154;51.992;5.896;2024-01-10T12:48:38;0.20;94.10
56240;DHT22;42154;51.992;5.896;2024-01-10T12:51:10;0.10;93.90
56240;DHT22;42154;51.992;5.896;2024-01-10T12:53:41;0.10;93.90
56240;DHT22;42154;51.992;5.896;2024-01-10T12:56:09;0.10;93.80
56240;DHT22;42154;51.992;5.896;2024-01-10T12:58:35;0.20;93.90
56240;DHT22;42154;51.992;5.896;2024-01-10T13:01:03;0.20;93.70
56240;DHT22;42154;51.992;5.896;2024-01-10T13:03:29;0.20;93.60
56240;DHT22;42154;51.992;5.896;2024-01-10T13:05:55;0.20;93.90
56240;DHT22;42154;51.992;5.896;2024-01-10T13:08:21;0.20;93.80
56240;DHT22;42154;51.992;5.896;2024-01-10T13:10:47;0.20;94.00
56240;DHT22;42154;51.992;5.896;2024-01-10T13:13:13;0.30;94.30
56240;DHT22;42154;51.992;5.896;2024-01-10T13:15:41;0.30;94.20
56240;DHT22;42154;51.992;5.896;2024-01-10T13:18:08;0.30;94.20
56240;DHT22;42154;51.992;5.896;2024-01-10T13:20:35;0.30;94.50
56240;DHT22;42154;51.992;5.896;2024-01-10T13:23:02;0.40;94.40
56240;DHT22;42154;51.992;5.896;2024-01-10T13:25:27;0.30;94.00
56240;DHT22;42154;51.992;5.896;2024-01-10T13:27:53;0.40;93.90
56240;DHT22;42154;51.992;5.896;2024-01-10T13:30:19;0.40;94.10
56240;DHT22;42154;51.992;5.896;2024-01-10T13:32:45;0.40;93.80
56240;DHT22;42154;51.992;5.896;2024-01-10T13:35:13;0.40;94.10
56240;DHT22;42154;51.992;5.896;2024-01-10T13:37:40;0.40;94.40
56240;DHT22;42154;51.992;5.896;2024-01-10T13:40:09;0.40;94.50
56240;DHT22;42154;51.992;5.896;2024-01-10T13:42:47;0.40;94.60
56240;DHT22;42154;51.992;5.896;2024-01-10T13:45:12;0.40;94.60
56240;DHT22;42154;51.992;5.896;2024-01-10T13:47:39;0.50;94.70
56240;DHT22;42154;51.992;5.896;2024-01-10T13:50:06;0.40;94.70
56240;DHT22;42154;51.992;5.896;2024-01-10T13:52:34;0.40;94.80
56240;DHT22;42154;51.992;5.896;2024-01-10T13:55:00;0.60;94.40
56240;DHT22;42154;51.992;5.896;2024-01-10T13:57:26;0.40;94.40
56240;DHT22;42154;51.992;5.896;2024-01-10T13:59:52;0.40;94.50
56240;DHT22;42154;51.992;5.896;2024-01-10T14:02:22;0.40;94.40
56240;DHT22;42154;51.992;5.896;2024-01-10T14:04:48;0.40;94.30
56240;DHT22;42154;51.992;5.896;2024-01-10T14:07:14;0.40;94.30
56240;DHT22;42154;51.992;5.896;2024-01-10T14:09:39;0.40;94.40
56240;DHT22;42154;51.992;5.896;2024-01-10T14:12:05;0.40;94.30
56240;DHT22;42154;51.992;5.896;2024-01-10T14:14:31;0.40;94.60
56240;DHT22;42154;51.992;5.896;2024-01-10T14:17:00;0.30;94.70
56240;DHT22;42154;51.992;5.896;2024-01-10T14:19:25;0.40;94.80
56240;DHT22;42154;51.992;5.896;2024-01-10T14:21:52;0.40;94.40
56240;DHT22;42154;51.992;5.896;2024-01-10T14:24:18;0.30;94.70
56240;DHT22;42154;51.992;5.896;2024-01-10T14:26:43;0.30;94.90
56240;DHT22;42154;51.992;5.896;2024-01-10T14:29:09;0.30;95.10
56240;DHT22;42154;51.992;5.896;2024-01-10T14:31:36;0.30;95.10
56240;DHT22;42154;51.992;5.896;2024-01-10T14:34:02;0.30;95.10
56240;DHT22;42154;51.992;5.896;2024-01-10T14:36:28;0.30;95.30
56240;DHT22;42154;51.992;5.896;2024-01-10T14:38:55;0.30;95.40
56240;DHT22;42154;51.992;5.896;2024-01-10T14:41:24;0.30;95.40
56240;DHT22;42154;51.992;5.896;2024-01-10T14:43:49;0.30;95.40
56240;DHT22;42154;51.992;5.896;2024-01-10T14:46:16;0.20;95.40
56240;DHT22;42154;51.992;5.896;2024-01-10T14:48:41;0.20;95.50
56240;DHT22;42154;51.992;5.896;2024-01-10T14:51:07;0.20;95.50
56240;DHT22;42154;51.992;5.896;2024-01-10T14:53:33;0.20;95.60
56240;DHT22;42154;51.992;5.896;2024-01-10T14:56:02;0.20;95.40
56240;DHT22;42154;51.992;5.896;2024-01-10T14:58:28;0.10;95.50
56240;DHT22;42154;51.992;5.896;2024-01-10T15:00:54;0.10;95.60
56240;DHT22;42154;51.992;5.896;2024-01-10T15:03:20;0.00;95.80
56240;DHT22;42154;51.992;5.896;2024-01-10T15:05:46;0.10;95.80
56240;DHT22;42154;51.992;5.896;2024-01-10T15:08:13;0.00;95.70
56240;DHT22;42154;51.992;5.896;2024-01-10T15:10:39;0.10;96.00
56240;DHT22;42154;51.992;5.896;2024-01-10T15:13:12;-0.10;95.90
56240;DHT22;42154;51.992;5.896;2024-01-10T15:15:38;-0.10;96.10
56240;DHT22;42154;51.992;5.896;2024-01-10T15:18:05;-0.10;96.10
56240;DHT22;42154;51.992;5.896;2024-01-10T15:20:31;-0.10;96.10
56240;DHT22;42154;51.992;5.896;2024-01-10T15:22:56;-0.20;96.10
56240;DHT22;42154;51.992;5.896;2024-01-10T15:25:23;-0.20;96.30
56240;DHT22;42154;51.992;5.896;2024-01-10T15:27:52;-0.20;96.50
56240;DHT22;42154;51.992;5.896;2024-01-10T15:30:19;-0.30;96.60
56240;DHT22;42154;51.992;5.896;2024-01-10T15:32:49;-0.30;96.70
56240;DHT22;42154;51.992;5.896;2024-01-10T15:35:16;-0.30;96.80
56240;DHT22;42154;51.992;5.896;2024-01-10T15:37:43;-0.40;96.90
56240;DHT22;42154;51.992;5.896;2024-01-10T15:40:10;-0.40;96.90
56240;DHT22;42154;51.992;5.896;2024-01-10T15:42:43;-0.40;96.90